sensor_id;sensor_type;location;lat;lon;timestamp;temperature;humidity
44121;DHT22;29783;52.504;13.478;2023-06-26T00:00:15;19.20;88.00
44121;DHT22;29783;52.504;13.478;2023-06-26T00:02:41;19.20;88.30
44121;DHT22;29783;52.504;13.478;2023-06-26T00:05:07;19.10;88.40
44121;DHT22;29783;52.504;13.478;2023-06-26T00:07:33;19.20;88.60
44121;DHT22;29783;52.504;13.478;2023-06-26T00:09:59;19.10;88.70
44121;DHT22;29783;52.504;13.478;2023-06-26T00:12:26;19.10;88.90
44121;DHT22;29783;52.504;13.478;2023-06-26T00:14:52;19.10;89.00
44121;DHT22;29783;52.504;13.478;2023-06-26T00:17:18;19.00;88.90
44121;DHT22;29783;52.504;13.478;2023-06-26T00:19:44;19.00;89.00
44121;DHT22;29783;52.504;13.478;2023-06-26T00:22:10;19.00;89.10
44121;DHT22;29783;52.504;13.478;2023-06-26T00:24:36;19.00;89.20
44121;DHT22;29783;52.504;13.478;2023-06-26T00:27:01;18.90;89.20
44121;DHT22;29783;52.504;13.478;2023-06-26T00:29:27;18.90;89.30
44121;DHT22;29783;52.504;13.478;2023-06-26T00:31:53;18.80;89.40
44121;DHT22;29783;52.504;13.478;2023-06-26T00:34:18;18.80;89.60
44121;DHT22;29783;52.504;13.478;2023-06-26T00:36:44;18.80;89.60
44121;DHT22;29783;52.504;13.478;2023-06-26T00:39:11;18.80;89.60
44121;DHT22;29783;52.504;13.478;2023-06-26T00:41:37;18.80;89.50
44121;DHT22;29783;52.504;13.478;2023-06-26T00:44:04;18.80;89.50
44121;DHT22;29783;52.504;13.478;2023-06-26T00:46:30;18.80;89.60
44121;DHT22;29783;52.504;13.478;2023-06-26T00:48:59;18.80;89.80
44121;DHT22;29783;52.504;13.478;2023-06-26T00:51:26;18.80;90.00
44121;DHT22;29783;52.504;13.478;2023-06-26T00:53:52;18.80;90.20
44121;DHT22;29783;52.504;13.478;2023-06-26T00:56:18;18.80;90.10
44121;DHT22;29783;52.504;13.478;2023-06-26T00:58:44;18.80;90.10
44121;DHT22;29783;52.504;13.478;2023-06-26T01:01:11;18.80;90.10
44121;DHT22;29783;52.504;13.478;2023-06-26T01:03:41;18.80;90.10
44121;DHT22;29783;52.504;13.478;2023-06-26T01:06:07;18.90;90.10
44121;DHT22;29783;52.504;13.478;2023-06-26T01:08:37;18.90;90.00
44121;DHT22;29783;52.504;13.478;2023-06-26T01:11:04;19.00;89.80
44121;DHT22;29783;52.504;13.478;2023-06-26T01:13:29;19.00;89.70
44121;DHT22;29783;52.504;13.478;2023-06-26T01:15:57;19.00;89.60
44121;DHT22;29783;52.504;13.478;2023-06-26T01:18:25;19.10;89.60
44121;DHT22;29783;52.504;13.478;2023-06-26T01:20:52;19.10;89.60
44121;DHT22;29783;52.504;13.478;2023-06-26T01:23:31;19.10;89.60
44121;DHT22;29783;52.504;13.478;2023-06-26T01:26:22;19.10;89.60
44121;DHT22;29783;52.504;13.478;2023-06-26T01:28:50;19.10;89.60
44121;DHT22;29783;52.504;13.478;2023-06-26T01:31:17;19.10;89.70
44121;DHT22;29783;52.504;13.478;2023-06-26T01:33:43;19.10;89.70
44121;DHT22;29783;52.504;13.478;2023-06-26T01:36:09;19.00;89.80
44121;DHT22;29783;52.504;13.478;2023-06-26T01:38:35;19.00;89.90
44121;DHT22;29783;52.504;13.478;2023-06-26T01:41:02;19.00;89.90
44121;DHT22;29783;52.504;13.478;2023-06-26T01:43:52;19.00;90.00
44121;DHT22;29783;52.504;13.478;2023-06-26T01:46:39;18.90;90.10
44121;DHT22;29783;52.504;13.478;2023-06-26T01:52:03;18.90;90.30
44121;DHT22;29783;52.504;13.478;2023-06-26T01:54:33;18.80;90.30
44121;DHT22;29783;52.504;13.478;2023-06-26T01:57:00;18.80;90.40
44121;DHT22;29783;52.504;13.478;2023-06-26T01:59:27;18.80;90.50
44121;DHT22;29783;52.504;13.478;2023-06-26T02:01:54;18.70;90.60
44121;DHT22;29783;52.504;13.478;2023-06-26T02:04:20;18.70;90.70
44121;DHT22;29783;52.504;13.478;2023-06-26T02:06:45;18.70;90.80
44121;DHT22;29783;52.504;13.478;2023-06-26T02:09:11;18.70;90.80
44121;DHT22;29783;52.504;13.478;2023-06-26T02:11:36;18.70;90.90
44121;DHT22;29783;52.504;13.478;2023-06-26T02:14:02;18.70;91.00
44121;DHT22;29783;52.504;13.478;2023-06-26T02:16:28;18.70;91.10
44121;DHT22;29783;52.504;13.478;2023-06-26T02:18:54;18.60;91.00
44121;DHT22;29783;52.504;13.478;2023-06-26T02:21:20;18.70;91.10
44121;DHT22;29783;52.504;13.478;2023-06-26T02:23:46;18.70;91.20
44121;DHT22;29783;52.504;13.478;2023-06-26T02:26:11;18.60;91.30
44121;DHT22;29783;52.504;13.478;2023-06-26T02:28:37;18.60;91.40
44121;DHT22;29783;52.504;13.478;2023-06-26T02:31:02;18.60;91.40
44121;DHT22;29783;52.504;13.478;2023-06-26T02:33:28;18.60;91.40
44121;DHT22;29783;52.504;13.478;2023-06-26T02:35:54;18.60;91.50
44121;DHT22;29783;52.504;13.478;2023-06-26T02:38:20;18.60;91.50
44121;DHT22;29783;52.504;13.478;2023-06-26T02:40:45;18.60;91.60
44121;DHT22;29783;52.504;13.478;2023-06-26T02:43:11;18.70;91.50
44121;DHT22;29783;52.504;13.478;2023-06-26T02:45:36;18.60;91.50
44121;DHT22;29783;52.504;13.478;2023-06-26T02:48:02;18.60;91.40
44121;DHT22;29783;52.504;13.478;2023-06-26T02:50:28;18.60;91.50
44121;DHT22;29783;52.504;13.478;2023-06-26T02:52:53;18.60;91.50
44121;DHT22;29783;52.504;13.478;2023-06-26T02:55:19;18.60;91.60
44121;DHT22;29783;52.504;13.478;2023-06-26T02:57:46;18.60;91.60
44121;DHT22;29783;52.504;13.478;2023-06-26T03:00:12;18.60;91.70
44121;DHT22;29783;52.504;13.478;2023-06-26T03:02:38;18.60;91.80
44121;DHT22;29783;52.504;13.478;2023-06-26T03:05:04;18.50;91.80
44121;DHT22;29783;52.504;13.478;2023-06-26T03:07:30;18.50;91.90
44121;DHT22;29783;52.504;13.478;2023-06-26T03:09:55;18.50;91.90
44121;DHT22;29783;52.504;13.478;2023-06-26T03:12:21;18.40;92.10
44121;DHT22;29783;52.504;13.478;2023-06-26T03:14:47;18.40;92.20
44121;DHT22;29783;52.504;13.478;2023-06-26T03:17:12;18.40;92.40
44121;DHT22;29783;52.504;13.478;2023-06-26T03:19:38;18.30;92.50
44121;DHT22;29783;52.504;13.478;2023-06-26T03:22:04;18.30;92.70
44121;DHT22;29783;52.504;13.478;2023-06-26T03:24:29;18.30;92.70
44121;DHT22;29783;52.504;13.478;2023-06-26T03:26:55;18.30;92.80
44121;DHT22;29783;52.504;13.478;2023-06-26T03:29:20;18.30;92.90
44121;DHT22;29783;52.504;13.478;2023-06-26T03:31:46;18.30;93.00
44121;DHT22;29783;52.504;13.478;2023-06-26T03:34:12;18.30;93.10
44121;DHT22;29783;52.504;13.478;2023-06-26T03:36:38;18.30;93.10
44121;DHT22;29783;52.504;13.478;2023-06-26T03:39:03;18.30;93.10
44121;DHT22;29783;52.504;13.478;2023-06-26T03:41:29;18.30;93.20
44121;DHT22;29783;52.504;13.478;2023-06-26T03:43:55;18.30;93.10
44121;DHT22;29783;52.504;13.478;2023-06-26T03:46:22;18.30;93.10
44121;DHT22;29783;52.504;13.478;2023-06-26T03:48:48;18.40;93.10
44121;DHT22;29783;52.504;13.478;2023-06-26T03:51:14;18.50;93.00
44121;DHT22;29783;52.504;13.478;2023-06-26T03:53:39;18.70;92.90
44121;DHT22;29783;52.504;13.478;2023-06-26T03:56:05;18.70;92.70
44121;DHT22;29783;52.504;13.478;2023-06-26T11:00:14;29.90;41.80
44121;DHT22;29783;52.504;13.478;2023-06-26T11:02:52;30.00;42.60
44121;DHT22;29783;52.504;13.478;2023-06-26T11:05:32;30.20;42.10
44121;DHT22;29783;52.504;13.478;2023-06-26T11:08:09;30.30;41.20
44121;DHT22;29783;52.504;13.478;2023-06-26T11:10:54;30.50;40.00
44121;DHT22;29783;52.504;13.478;2023-06-26T11:13:21;30.60;39.20
44121;DHT22;29783;52.504;13.478;2023-06-26T11:15:49;30.60;38.60
44121;DHT22;29783;52.504;13.478;2023-06-26T11:18:15;30.80;39.20
44121;DHT22;29783;52.504;13.478;2023-06-26T11:20:41;31.00;39.80
44121;DHT22;29783;52.504;13.478;2023-06-26T11:23:08;30.90;39.20
44121;DHT22;29783;52.504;13.478;2023-06-26T11:25:35;30.90;39.00
44121;DHT22;29783;52.504;13.478;2023-06-26T11:28:01;31.00;39.70
44121;DHT22;29783;52.504;13.478;2023-06-26T11:30:27;31.20;39.70
44121;DHT22;29783;52.504;13.478;2023-06-26T11:32:52;31.30;40.00
44121;DHT22;29783;52.504;13.478;2023-06-26T11:35:25;31.40;39.30
44121;DHT22;29783;52.504;13.478;2023-06-26T11:38:00;31.40;38.70
44121;DHT22;29783;52.504;13.478;2023-06-26T11:40:33;31.60;39.20
44121;DHT22;29783;52.504;13.478;2023-06-26T11:43:02;31.70;38.60
44121;DHT22;29783;52.504;13.478;2023-06-26T11:45:30;31.60;38.40
44121;DHT22;29783;52.504;13.478;2023-06-26T11:47:56;31.70;38.00
44121;DHT22;29783;52.504;13.478;2023-06-26T11:50:23;31.70;37.70
44121;DHT22;29783;52.504;13.478;2023-06-26T11:52:59;31.90;38.20
44121;DHT22;29783;52.504;13.478;2023-06-26T11:55:25;32.00;37.10
44121;DHT22;29783;52.504;13.478;2023-06-26T11:57:56;32.00;37.60
44121;DHT22;29783;52.504;13.478;2023-06-26T12:00:23;32.10;38.00
44121;DHT22;29783;52.504;13.478;2023-06-26T12:02:49;32.10;37.90
44121;DHT22;29783;52.504;13.478;2023-06-26T12:05:17;31.80;38.20
44121;DHT22;29783;52.504;13.478;2023-06-26T12:07:45;32.00;37.90
44121;DHT22;29783;52.504;13.478;2023-06-26T12:10:12;32.10;36.40
44121;DHT22;29783;52.504;13.478;2023-06-26T12:12:39;31.80;36.60
44121;DHT22;29783;52.504;13.478;2023-06-26T12:15:07;31.80;37.70
44121;DHT22;29783;52.504;13.478;2023-06-26T12:17:33;32.20;37.60
44121;DHT22;29783;52.504;13.478;2023-06-26T12:19:59;32.30;36.40
44121;DHT22;29783;52.504;13.478;2023-06-26T12:22:33;32.10;37.10
44121;DHT22;29783;52.504;13.478;2023-06-26T12:24:59;32.20;37.10
44121;DHT22;29783;52.504;13.478;2023-06-26T12:27:25;32.20;37.60
44121;DHT22;29783;52.504;13.478;2023-06-26T12:29:52;32.10;37.30
44121;DHT22;29783;52.504;13.478;2023-06-26T12:32:18;31.90;38.00
44121;DHT22;29783;52.504;13.478;2023-06-26T12:34:48;32.00;38.00
44121;DHT22;29783;52.504;13.478;2023-06-26T12:37:14;32.30;37.60
44121;DHT22;29783;52.504;13.478;2023-06-26T12:39:48;32.80;37.80
44121;DHT22;29783;52.504;13.478;2023-06-26T12:42:25;33.20;35.70
44121;DHT22;29783;52.504;13.478;2023-06-26T12:44:52;33.30;35.30
44121;DHT22;29783;52.504;13.478;2023-06-26T12:47:19;33.30;36.20
44121;DHT22;29783;52.504;13.478;2023-06-26T12:49:51;33.40;35.60
44121;DHT22;29783;52.504;13.478;2023-06-26T12:52:18;33.20;35.50
44121;DHT22;29783;52.504;13.478;2023-06-26T12:54:51;32.90;35.20
44121;DHT22;29783;52.504;13.478;2023-06-26T12:57:17;33.00;35.50
44121;DHT22;29783;52.504;13.478;2023-06-26T12:59:57;33.30;36.00
44121;DHT22;29783;52.504;13.478;2023-06-26T13:05:19;33.00;36.10
44121;DHT22;29783;52.504;13.478;2023-06-26T13:07:46;32.80;36.60
44121;DHT22;29783;52.504;13.478;2023-06-26T13:10:13;32.90;36.70
44121;DHT22;29783;52.504;13.478;2023-06-26T13:12:38;32.90;36.40
44121;DHT22;29783;52.504;13.478;2023-06-26T13:15:04;32.80;36.40
44121;DHT22;29783;52.504;13.478;2023-06-26T13:17:31;32.80;36.80
44121;DHT22;29783;52.504;13.478;2023-06-26T13:19:57;32.60;36.30
44121;DHT22;29783;52.504;13.478;2023-06-26T13:22:23;32.30;37.30
44121;DHT22;29783;52.504;13.478;2023-06-26T13:24:49;32.00;38.20
44121;DHT22;29783;52.504;13.478;2023-06-26T13:27:14;31.90;38.50
44121;DHT22;29783;52.504;13.478;2023-06-26T13:29:41;31.70;39.30
44121;DHT22;29783;52.504;13.478;2023-06-26T13:32:07;31.60;38.30
44121;DHT22;29783;52.504;13.478;2023-06-26T13:34:33;31.40;39.00
44121;DHT22;29783;52.504;13.478;2023-06-26T13:36:59;31.40;39.10
44121;DHT22;29783;52.504;13.478;2023-06-26T13:39:26;31.30;39.30
44121;DHT22;29783;52.504;13.478;2023-06-26T13:41:52;31.10;40.00
44121;DHT22;29783;52.504;13.478;2023-06-26T13:44:17;31.00;40.00
44121;DHT22;29783;52.504;13.478;2023-06-26T13:46:43;30.90;40.40
44121;DHT22;29783;52.504;13.478;2023-06-26T13:49:09;30.90;41.00
44121;DHT22;29783;52.504;13.478;2023-06-26T13:51:35;30.80;40.50
44121;DHT22;29783;52.504;13.478;2023-06-26T13:54:01;30.70;41.20
44121;DHT22;29783;52.504;13.478;2023-06-26T13:56:27;30.70;40.70
44121;DHT22;29783;52.504;13.478;2023-06-26T13:58:55;30.80;41.20
44121;DHT22;29783;52.504;13.478;2023-06-26T14:01:21;30.90;41.60
44121;DHT22;29783;52.504;13.478;2023-06-26T14:03:49;31.10;40.00
44121;DHT22;29783;52.504;13.478;2023-06-26T14:06:15;31.10;40.40
44121;DHT22;29783;52.504;13.478;2023-06-26T14:08:40;31.00;40.80
44121;DHT22;29783;52.504;13.478;2023-06-26T14:11:07;30.90;41.30
44121;DHT22;29783;52.504;13.478;2023-06-26T14:13:34;30.60;41.30
44121;DHT22;29783;52.504;13.478;2023-06-26T14:16:00;30.60;41.80
44121;DHT22;29783;52.504;13.478;2023-06-26T14:18:28;30.50;42.20
44121;DHT22;29783;52.504;13.478;2023-06-26T14:20:54;30.40;42.40
44121;DHT22;29783;52.504;13.478;2023-06-26T14:23:20;30.20;42.80
44121;DHT22;29783;52.504;13.478;2023-06-26T14:25:45;30.10;42.30
44121;DHT22;29783;52.504;13.478;2023-06-26T14:28:11;30.10;42.60
44121;DHT22;29783;52.504;13.478;2023-06-26T14:30:36;29.70;46.00
44121;DHT22;29783;52.504;13.478;2023-06-26T14:33:02;27.70;63.80
44121;DHT22;29783;52.504;13.478;2023-06-26T14:35:28;23.50;80.60
44121;DHT22;29783;52.504;13.478;2023-06-26T14:37:53;21.50;87.60
44121;DHT22;29783;52.504;13.478;2023-06-26T14:40:19;20.50;91.90
44121;DHT22;29783;52.504;13.478;2023-06-26T14:42:45;20.00;93.60
44121;DHT22;29783;52.504;13.478;2023-06-26T14:45:12;19.70;94.20
44121;DHT22;29783;52.504;13.478;2023-06-26T17:14:17;21.20;89.20
44121;DHT22;29783;52.504;13.478;2023-06-26T17:16:43;21.20;88.70
44121;DHT22;29783;52.504;13.478;2023-06-26T17:19:09;21.20;88.60
44121;DHT22;29783;52.504;13.478;2023-06-26T17:21:36;21.20;88.80
44121;DHT22;29783;52.504;13.478;2023-06-26T17:24:07;21.20;87.90
44121;DHT22;29783;52.504;13.478;2023-06-26T17:26:32;21.40;88.10
44121;DHT22;29783;52.504;13.478;2023-06-26T17:29:02;21.70;86.80
44121;DHT22;29783;52.504;13.478;2023-06-26T17:31:28;21.90;86.70
44121;DHT22;29783;52.504;13.478;2023-06-26T17:33:56;21.90;84.40
44121;DHT22;29783;52.504;13.478;2023-06-26T17:36:22;22.10;84.70
44121;DHT22;29783;52.504;13.478;2023-06-26T17:38:49;22.20;85.00
44121;DHT22;29783;52.504;13.478;2023-06-26T17:41:15;22.20;84.70
44121;DHT22;29783;52.504;13.478;2023-06-26T17:43:41;22.20;84.50
44121;DHT22;29783;52.504;13.478;2023-06-26T18:04:15;21.70;84.60
44121;DHT22;29783;52.504;13.478;2023-06-26T18:06:41;21.70;84.20
44121;DHT22;29783;52.504;13.478;2023-06-26T18:09:08;21.60;83.20
44121;DHT22;29783;52.504;13.478;2023-06-26T18:11:35;21.50;83.50
44121;DHT22;29783;52.504;13.478;2023-06-26T18:14:01;21.50;84.10
44121;DHT22;29783;52.504;13.478;2023-06-26T18:16:28;21.40;83.70
44121;DHT22;29783;52.504;13.478;2023-06-26T18:18:55;21.40;84.20
44121;DHT22;29783;52.504;13.478;2023-06-26T18:21:21;21.30;83.80
44121;DHT22;29783;52.504;13.478;2023-06-26T18:23:47;21.20;84.70
44121;DHT22;29783;52.504;13.478;2023-06-26T18:26:16;21.20;84.80
44121;DHT22;29783;52.504;13.478;2023-06-26T18:28:41;21.20;85.30
44121;DHT22;29783;52.504;13.478;2023-06-26T18:31:08;21.20;84.90
44121;DHT22;29783;52.504;13.478;2023-06-26T18:33:34;21.20;84.90
44121;DHT22;29783;52.504;13.478;2023-06-26T18:36:00;21.20;85.10
44121;DHT22;29783;52.504;13.478;2023-06-26T18:38:28;21.10;84.10
44121;DHT22;29783;52.504;13.478;2023-06-26T18:40:54;21.10;85.00
44121;DHT22;29783;52.504;13.478;2023-06-26T18:43:21;21.00;84.60
44121;DHT22;29783;52.504;13.478;2023-06-26T18:45:50;20.90;85.00
44121;DHT22;29783;52.504;13.478;2023-06-26T18:48:16;20.80;85.40
44121;DHT22;29783;52.504;13.478;2023-06-26T18:50:42;20.80;85.60
44121;DHT22;29783;52.504;13.478;2023-06-26T18:53:07;20.70;86.10
44121;DHT22;29783;52.504;13.478;2023-06-26T18:55:33;20.70;86.20
44121;DHT22;29783;52.504;13.478;2023-06-26T18:58:00;20.70;85.60
44121;DHT22;29783;52.504;13.478;2023-06-26T19:00:30;20.60;86.20
44121;DHT22;29783;52.504;13.478;2023-06-26T19:02:57;20.60;86.20
44121;DHT22;29783;52.504;13.478;2023-06-26T19:05:24;20.60;86.00
44121;DHT22;29783;52.504;13.478;2023-06-26T19:07:51;20.60;86.00
44121;DHT22;29783;52.504;13.478;2023-06-26T19:10:17;20.60;86.40
44121;DHT22;29783;52.504;13.478;2023-06-26T19:12:46;20.60;85.90
44121;DHT22;29783;52.504;13.478;2023-06-26T19:15:27;20.60;86.20
44121;DHT22;29783;52.504;13.478;2023-06-26T19:17:54;20.60;85.10
44121;DHT22;29783;52.504;13.478;2023-06-26T19:20:19;20.60;83.60
44121;DHT22;29783;52.504;13.478;2023-06-26T19:22:46;20.60;83.50
44121;DHT22;29783;52.504;13.478;2023-06-26T19:25:13;20.70;82.10
44121;DHT22;29783;52.504;13.478;2023-06-26T19:27:40;20.60;83.00
44121;DHT22;29783;52.504;13.478;2023-06-26T19:30:07;20.60;81.60
44121;DHT22;29783;52.504;13.478;2023-06-26T19:32:33;20.60;81.00
44121;DHT22;29783;52.504;13.478;2023-06-26T19:34:59;20.50;81.80
44121;DHT22;29783;52.504;13.478;2023-06-26T19:37:25;20.50;79.70
44121;DHT22;29783;52.504;13.478;2023-06-26T19:39:50;20.50;78.10
44121;DHT22;29783;52.504;13.478;2023-06-26T19:42:18;20.60;76.20
44121;DHT22;29783;52.504;13.478;2023-06-26T19:44:44;20.50;77.00
44121;DHT22;29783;52.504;13.478;2023-06-26T19:47:09;20.50;76.10
44121;DHT22;29783;52.504;13.478;2023-06-26T19:49:35;20.40;76.70
44121;DHT22;29783;52.504;13.478;2023-06-26T19:52:00;20.40;75.80
44121;DHT22;29783;52.504;13.478;2023-06-26T19:54:26;20.50;73.60
44121;DHT22;29783;52.504;13.478;2023-06-26T19:56:52;20.50;73.70
44121;DHT22;29783;52.504;13.478;2023-06-26T19:59:18;20.50;74.10
44121;DHT22;29783;52.504;13.478;2023-06-26T20:01:44;20.50;71.80
44121;DHT22;29783;52.504;13.478;2023-06-26T20:04:10;20.50;71.50
44121;DHT22;29783;52.504;13.478;2023-06-26T20:06:36;20.40;70.50
44121;DHT22;29783;52.504;13.478;2023-06-26T20:09:02;20.50;68.30
44121;DHT22;29783;52.504;13.478;2023-06-26T20:11:29;20.50;67.10
44121;DHT22;29783;52.504;13.478;2023-06-26T20:13:55;20.40;64.50
44121;DHT22;29783;52.504;13.478;2023-06-26T20:16:21;20.40;64.50
44121;DHT22;29783;52.504;13.478;2023-06-26T20:18:46;20.40;64.30
44121;DHT22;29783;52.504;13.478;2023-06-26T20:21:13;20.30;64.60
44121;DHT22;29783;52.504;13.478;2023-06-26T20:23:38;20.20;64.60
44121;DHT22;29783;52.504;13.478;2023-06-26T20:26:04;20.20;62.60
44121;DHT22;29783;52.504;13.478;2023-06-26T20:28:29;20.20;62.40
44121;DHT22;29783;52.504;13.478;2023-06-26T20:30:55;20.20;61.90
44121;DHT22;29783;52.504;13.478;2023-06-26T20:33:20;20.10;61.80
44121;DHT22;29783;52.504;13.478;2023-06-26T20:35:46;20.00;62.00
44121;DHT22;29783;52.504;13.478;2023-06-26T20:38:12;20.00;62.30
44121;DHT22;29783;52.504;13.478;2023-06-26T20:40:38;20.00;61.50
44121;DHT22;29783;52.504;13.478;2023-06-26T20:43:03;20.00;61.70
44121;DHT22;29783;52.504;13.478;2023-06-26T20:45:29;20.00;61.60
44121;DHT22;29783;52.504;13.478;2023-06-26T20:47:55;19.90;61.70
44121;DHT22;29783;52.504;13.478;2023-06-26T20:50:21;19.90;61.40
44121;DHT22;29783;52.504;13.478;2023-06-26T20:52:48;19.90;61.50
44121;DHT22;29783;52.504;13.478;2023-06-26T20:55:15;19.90;60.40
44121;DHT22;29783;52.504;13.478;2023-06-26T20:57:41;19.90;60.30
44121;DHT22;29783;52.504;13.478;2023-06-26T21:00:07;19.90;60.10
44121;DHT22;29783;52.504;13.478;2023-06-26T21:02:33;19.90;60.40
44121;DHT22;29783;52.504;13.478;2023-06-26T21:05:00;19.90;60.10
44121;DHT22;29783;52.504;13.478;2023-06-26T21:07:26;19.80;60.20
44121;DHT22;29783;52.504;13.478;2023-06-26T21:09:51;19.80;59.50
44121;DHT22;29783;52.504;13.478;2023-06-26T21:12:19;19.80;59.70
44121;DHT22;29783;52.504;13.478;2023-06-26T21:14:45;19.80;59.40
44121;DHT22;29783;52.504;13.478;2023-06-26T21:17:11;19.70;59.10
44121;DHT22;29783;52.504;13.478;2023-06-26T21:19:36;19.70;59.50
44121;DHT22;29783;52.504;13.478;2023-06-26T21:22:02;19.70;59.50
44121;DHT22;29783;52.504;13.478;2023-06-26T21:24:28;19.70;59.80
44121;DHT22;29783;52.504;13.478;2023-06-26T21:26:53;19.70;60.00
44121;DHT22;29783;52.504;13.478;2023-06-26T21:29:19;19.70;60.20
44121;DHT22;29783;52.504;13.478;2023-06-26T21:31:44;19.70;59.90
44121;DHT22;29783;52.504;13.478;2023-06-26T21:34:10;19.70;59.90
44121;DHT22;29783;52.504;13.478;2023-06-26T21:36:36;19.60;60.20
44121;DHT22;29783;52.504;13.478;2023-06-26T21:39:02;19.50;60.30
44121;DHT22;29783;52.504;13.478;2023-06-26T21:41:28;19.50;60.10
44121;DHT22;29783;52.504;13.478;2023-06-26T21:43:54;19.40;60.60
44121;DHT22;29783;52.504;13.478;2023-06-26T21:46:19;19.40;59.80
44121;DHT22;29783;52.504;13.478;2023-06-26T21:48:45;19.30;60.10
44121;DHT22;29783;52.504;13.478;2023-06-26T21:51:11;19.40;59.70
44121;DHT22;29783;52.504;13.478;2023-06-26T21:53:37;19.30;59.20
44121;DHT22;29783;52.504;13.478;2023-06-26T21:56:02;19.30;59.20
44121;DHT22;29783;52.504;13.478;2023-06-26T21:58:28;19.20;59.20
44121;DHT22;29783;52.504;13.478;2023-06-26T22:00:54;19.20;59.70
44121;DHT22;29783;52.504;13.478;2023-06-26T22:03:20;19.20;59.40
44121;DHT22;29783;52.504;13.478;2023-06-26T22:05:45;19.10;59.50
44121;DHT22;29783;52.504;13.478;2023-06-26T22:08:11;19.10;59.70
44121;DHT22;29783;52.504;13.478;2023-06-26T22:10:37;19.10;59.90
44121;DHT22;29783;52.504;13.478;2023-06-26T22:13:02;19.00;60.20
44121;DHT22;29783;52.504;13.478;2023-06-26T22:15:29;19.00;60.30
44121;DHT22;29783;52.504;13.478;2023-06-26T22:17:55;18.90;60.50
44121;DHT22;29783;52.504;13.478;2023-06-26T22:20:25;19.00;60.60
44121;DHT22;29783;52.504;13.478;2023-06-26T22:22:51;19.00;60.70
44121;DHT22;29783;52.504;13.478;2023-06-26T22:25:17;18.90;60.70
44121;DHT22;29783;52.504;13.478;2023-06-26T22:27:50;18.90;60.90
44121;DHT22;29783;52.504;13.478;2023-06-26T22:30:17;18.90;60.70
44121;DHT22;29783;52.504;13.478;2023-06-26T22:32:44;18.80;60.90
44121;DHT22;29783;52.504;13.478;2023-06-26T22:35:11;18.70;60.70
44121;DHT22;29783;52.504;13.478;2023-06-26T22:37:37;18.70;60.90
44121;DHT22;29783;52.504;13.478;2023-06-26T22:40:03;18.70;61.20
44121;DHT22;29783;52.504;13.478;2023-06-26T22:42:32;18.70;61.60
44121;DHT22;29783;52.504;13.478;2023-06-26T22:44:58;18.70;62.30
44121;DHT22;29783;52.504;13.478;2023-06-26T22:47:23;18.60;62.90
44121;DHT22;29783;52.504;13.478;2023-06-26T22:49:49;18.50;63.20
44121;DHT22;29783;52.504;13.478;2023-06-26T22:52:15;18.50;63.80
44121;DHT22;29783;52.504;13.478;2023-06-26T22:54:41;18.40;64.30
44121;DHT22;29783;52.504;13.478;2023-06-26T22:57:06;18.40;64.70
44121;DHT22;29783;52.504;13.478;2023-06-26T22:59:32;18.20;65.10
44121;DHT22;29783;52.504;13.478;2023-06-26T23:01:58;18.30;65.60
44121;DHT22;29783;52.504;13.478;2023-06-26T23:04:23;18.20;66.20
44121;DHT22;29783;52.504;13.478;2023-06-26T23:06:49;18.20;66.50
44121;DHT22;29783;52.504;13.478;2023-06-26T23:09:16;18.20;67.00
44121;DHT22;29783;52.504;13.478;2023-06-26T23:11:42;18.20;67.50
44121;DHT22;29783;52.504;13.478;2023-06-26T23:14:08;18.20;67.60
44121;DHT22;29783;52.504;13.478;2023-06-26T23:16:33;18.20;67.70
44121;DHT22;29783;52.504;13.478;2023-06-26T23:19:00;18.20;67.90
44121;DHT22;29783;52.504;13.478;2023-06-26T23:21:27;18.10;68.30
44121;DHT22;29783;52.504;13.478;2023-06-26T23:23:52;18.10;68.40
44121;DHT22;29783;52.504;13.478;2023-06-26T23:26:22;18.00;68.80
44121;DHT22;29783;52.504;13.478;2023-06-26T23:28:48;18.00;68.90
44121;DHT22;29783;52.504;13.478;2023-06-26T23:31:14;17.90;69.10
44121;DHT22;29783;52.504;13.478;2023-06-26T23:33:42;17.90;69.30
44121;DHT22;29783;52.504;13.478;2023-06-26T23:36:08;17.90;69.30
44121;DHT22;29783;52.504;13.478;2023-06-26T23:38:37;17.80;69.50
44121;DHT22;29783;52.504;13.478;2023-06-26T23:41:08;17.80;69.80
44121;DHT22;29783;52.504;13.478;2023-06-26T23:43:34;17.70;70.00
44121;DHT22;29783;52.504;13.478;2023-06-26T23:46:00;17.70;70.10
44121;DHT22;29783;52.504;13.478;2023-06-26T23:48:27;17.70;70.40
44121;DHT22;29783;52.504;13.478;2023-06-26T23:50:54;17.50;70.90
44121;DHT22;29783;52.504;13.478;2023-06-26T23:53:19;17.50;71.10
44121;DHT22;29783;52.504;13.478;2023-06-26T23:55:45;17.50;71.30
44121;DHT22;29783;52.504;13.478;2023-06-26T23:58:11;17.40;71.30
